createdAt,value
2019-02-02T00:00:38.422Z,1.10
2019-02-02T00:04:42.609Z,1.10
2019-02-02T00:08:46.726Z,1.10
2019-02-02T00:12:50.918Z,1.10
2019-02-02T00:16:55.510Z,1.10
2019-02-02T00:20:59.694Z,1.10
2019-02-02T00:25:03.997Z,1.10
2019-02-02T00:29:08.111Z,1.10
2019-02-02T00:33:12.273Z,1.10
2019-02-02T00:37:16.491Z,1.10
2019-02-02T00:41:20.687Z,1.10
2019-02-02T00:45:24.882Z,1.10
2019-02-02T00:49:28.990Z,1.10
2019-02-02T00:53:33.162Z,1.10
2019-02-02T00:57:37.387Z,1.10
2019-02-02T01:01:41.547Z,1.10
2019-02-02T01:05:45.759Z,1.10
2019-02-02T01:09:50.018Z,1.10
2019-02-02T01:13:54.209Z,1.10
2019-02-02T01:17:58.491Z,1.10
2019-02-02T01:22:02.691Z,1.10
2019-02-02T01:26:06.974Z,1.10
2019-02-02T01:30:13.353Z,1.10
2019-02-02T01:34:17.493Z,1.10
2019-02-02T01:38:21.624Z,1.10
2019-02-02T01:42:25.818Z,1.10
2019-02-02T01:46:29.942Z,1.10
2019-02-02T01:50:34.131Z,1.10
2019-02-02T01:54:38.609Z,1.10
2019-02-02T01:58:42.910Z,1.10
2019-02-02T02:02:47.102Z,1.10
2019-02-02T02:06:51.290Z,1.10
2019-02-02T02:10:58.174Z,1.00
2019-02-02T02:15:01.386Z,1.00
2019-02-02T02:19:05.502Z,1.00
2019-02-02T02:23:09.694Z,1.00
2019-02-02T02:27:13.895Z,1.00
2019-02-02T02:31:18.156Z,1.00
2019-02-02T02:35:22.360Z,1.00
2019-02-02T02:39:26.544Z,1.00
2019-02-02T02:43:30.739Z,1.00
2019-02-02T02:47:35.049Z,1.00
2019-02-02T02:51:39.235Z,1.10
2019-02-02T02:55:43.422Z,1.00
2019-02-02T02:59:47.538Z,1.00
2019-02-02T03:03:51.806Z,1.00
2019-02-02T03:07:56.230Z,1.00
2019-02-02T03:12:00.351Z,1.00
2019-02-02T03:16:04.556Z,1.00
2019-02-02T03:20:10.207Z,1.00
2019-02-02T03:24:14.387Z,1.00
2019-02-02T03:28:18.619Z,1.00
2019-02-02T03:32:22.819Z,1.00
2019-02-02T03:36:27.010Z,0.90
2019-02-02T03:40:31.207Z,0.90
2019-02-02T03:44:35.494Z,0.90
2019-02-02T03:48:39.694Z,0.90
2019-02-02T03:52:43.885Z,0.90
2019-02-02T03:56:48.179Z,0.80
2019-02-02T04:00:52.437Z,0.80
2019-02-02T04:04:56.622Z,0.80
2019-02-02T04:09:00.813Z,0.80
2019-02-02T04:13:05.028Z,0.80
2019-02-02T04:17:09.193Z,0.70
2019-02-02T04:21:13.394Z,0.70
2019-02-02T04:25:19.952Z,0.70
2019-02-02T04:29:24.257Z,0.70
2019-02-02T04:33:28.441Z,0.70
2019-02-02T04:37:32.607Z,0.70
2019-02-02T04:41:36.806Z,0.70
2019-02-02T04:45:40.930Z,0.70
2019-02-02T04:49:45.118Z,0.70
2019-02-02T04:53:49.303Z,0.70
2019-02-02T04:57:53.587Z,0.70
2019-02-02T05:01:57.781Z,0.70
2019-02-02T05:06:01.930Z,0.70
2019-02-02T05:10:06.730Z,0.70
2019-02-02T05:14:10.866Z,0.70
2019-02-02T05:18:15.169Z,0.70
2019-02-02T05:22:19.347Z,0.70
2019-02-02T05:26:23.539Z,0.70
2019-02-02T05:30:29.489Z,0.70
2019-02-02T05:34:33.670Z,0.70
2019-02-02T05:38:37.842Z,0.70
2019-02-02T05:42:41.959Z,0.80
2019-02-02T05:46:46.149Z,0.80
2019-02-02T05:50:50.346Z,0.80
2019-02-02T05:54:54.529Z,0.80
2019-02-02T05:58:58.694Z,0.80
2019-02-02T06:03:02.894Z,0.90
2019-02-02T06:07:07.087Z,0.90
2019-02-02T06:11:11.279Z,0.90
2019-02-02T06:15:15.497Z,0.90
2019-02-02T06:19:19.666Z,0.90
2019-02-02T06:23:23.851Z,0.90
2019-02-02T06:27:28.077Z,0.90
2019-02-02T06:31:32.354Z,0.90
2019-02-02T06:35:36.537Z,0.90
2019-02-02T06:39:40.698Z,0.90
2019-02-02T06:43:44.883Z,1.00
2019-02-02T06:47:49.199Z,0.90
2019-02-02T06:51:53.395Z,0.90
2019-02-02T06:55:57.587Z,1.00
2019-02-02T07:00:01.763Z,1.00
2019-02-02T07:04:05.967Z,1.00
2019-02-02T07:08:10.270Z,1.00
2019-02-02T07:12:14.641Z,1.00
2019-02-02T07:16:18.954Z,1.00
2019-02-02T07:20:23.721Z,1.00
2019-02-02T07:24:27.922Z,1.00
2019-02-02T07:28:32.107Z,1.00
2019-02-02T07:32:39.251Z,1.00
2019-02-02T07:36:43.474Z,1.00
2019-02-02T07:40:47.665Z,1.10
2019-02-02T07:44:52.411Z,1.10
2019-02-02T07:48:56.603Z,1.10
2019-02-02T07:53:00.794Z,1.10
2019-02-02T07:57:05.028Z,1.10
2019-02-02T08:01:09.302Z,1.10
2019-02-02T08:05:13.689Z,1.10
2019-02-02T08:09:17.883Z,1.20
2019-02-02T08:13:22.130Z,1.10
2019-02-02T08:17:26.314Z,1.20
2019-02-02T08:21:30.487Z,1.20
2019-02-02T08:25:34.715Z,1.20
2019-02-02T08:29:38.903Z,1.20
2019-02-02T08:33:45.309Z,1.20
2019-02-02T08:37:48.938Z,1.20
2019-02-02T08:41:53.102Z,1.30
2019-02-02T08:45:57.298Z,1.30
2019-02-02T08:50:01.580Z,1.30
2019-02-02T08:54:05.783Z,1.40
2019-02-02T08:58:10.078Z,1.40
2019-02-02T09:02:14.194Z,1.40
2019-02-02T09:06:18.514Z,1.40
2019-02-02T09:10:24.699Z,1.50
2019-02-02T09:14:28.868Z,1.50
2019-02-02T09:18:33.065Z,1.60
2019-02-02T09:22:37.238Z,1.60
2019-02-02T09:26:41.439Z,1.60
2019-02-02T09:30:45.636Z,1.60
2019-02-02T09:34:49.835Z,1.60
2019-02-02T09:38:54.023Z,1.70
2019-02-02T09:42:58.200Z,1.70
2019-02-02T09:47:02.391Z,1.70
2019-02-02T09:51:07.153Z,1.70
2019-02-02T09:55:13.554Z,1.70
2019-02-02T09:59:17.727Z,1.70
2019-02-02T10:03:21.922Z,1.70
2019-02-02T10:07:26.140Z,1.70
2019-02-02T10:11:30.327Z,1.70
2019-02-02T10:15:34.630Z,1.80
2019-02-02T10:19:38.806Z,1.80
2019-02-02T10:23:43.008Z,1.80
2019-02-02T10:27:47.194Z,1.90
2019-02-02T10:31:51.385Z,1.90
2019-02-02T10:35:56.362Z,1.90
2019-02-02T10:40:00.636Z,2.00
2019-02-02T10:44:04.746Z,2.00
2019-02-02T10:48:08.943Z,2.00
2019-02-02T10:52:13.131Z,2.00
2019-02-02T10:56:17.355Z,2.00
2019-02-02T11:00:23.754Z,1.90
2019-02-02T11:04:27.964Z,2.00
2019-02-02T11:08:32.204Z,2.00
2019-02-02T11:12:36.567Z,2.00
2019-02-02T11:16:40.921Z,2.00
2019-02-02T11:20:45.122Z,2.00
2019-02-02T11:24:49.523Z,2.00
2019-02-02T11:28:53.709Z,2.00
2019-02-02T11:32:57.938Z,2.00
2019-02-02T11:37:02.134Z,2.00
2019-02-02T11:41:06.350Z,2.10
2019-02-02T11:45:11.147Z,2.10
2019-02-02T11:49:15.407Z,2.10
2019-02-02T11:53:19.749Z,2.10
2019-02-02T11:57:23.986Z,2.10
2019-02-02T12:01:28.175Z,2.20
2019-02-02T12:05:32.469Z,2.20
2019-02-02T12:09:36.657Z,2.20
2019-02-02T12:13:40.898Z,2.20
2019-02-02T12:17:45.093Z,2.20
2019-02-02T12:21:49.286Z,2.20
2019-02-02T12:25:53.467Z,2.20
2019-02-02T12:29:58.168Z,2.20
2019-02-02T12:34:02.364Z,2.20
2019-02-02T12:38:06.642Z,2.20
2019-02-02T12:42:10.834Z,2.30
2019-02-02T12:46:15.018Z,2.30
2019-02-02T12:50:19.210Z,2.30
2019-02-02T12:54:23.395Z,2.30
2019-02-02T12:58:27.586Z,2.30
2019-02-02T13:02:38.127Z,2.30
2019-02-02T13:06:37.626Z,2.30
2019-02-02T13:10:41.815Z,2.30
2019-02-02T13:14:46.030Z,2.40
2019-02-02T13:18:50.225Z,2.40
2019-02-02T13:22:54.343Z,2.40
2019-02-02T13:26:58.506Z,2.40
2019-02-02T13:31:02.697Z,2.40
2019-02-02T13:35:09.711Z,2.40
2019-02-02T13:39:13.898Z,2.50
2019-02-02T13:43:18.106Z,2.50
2019-02-02T13:47:22.282Z,2.50
2019-02-02T13:51:26.474Z,2.50
2019-02-02T13:55:30.611Z,2.50
2019-02-02T13:59:34.804Z,2.50
2019-02-02T14:03:39.017Z,2.50
2019-02-02T14:07:43.235Z,2.50
2019-02-02T14:11:47.426Z,2.50
2019-02-02T14:15:51.646Z,2.60
2019-02-02T14:19:55.865Z,2.60
2019-02-02T14:24:00.153Z,2.60
2019-02-02T14:28:04.666Z,2.60
2019-02-02T14:32:08.875Z,2.60
2019-02-02T14:36:13.074Z,2.60
2019-02-02T14:40:18.319Z,2.50
2019-02-02T14:44:22.519Z,2.50
2019-02-02T14:48:26.703Z,2.50
2019-02-02T14:52:30.906Z,2.50
2019-02-02T14:56:35.046Z,2.50
2019-02-02T15:00:39.242Z,2.50
2019-02-02T15:04:43.446Z,2.50
2019-02-02T15:08:47.831Z,2.50
2019-02-02T15:12:52.317Z,2.50
2019-02-02T15:16:56.515Z,2.50
2019-02-02T15:21:00.734Z,2.50
2019-02-02T15:25:06.218Z,2.50
2019-02-02T15:29:10.322Z,2.50
2019-02-02T15:33:14.522Z,2.40
2019-02-02T15:37:18.711Z,2.40
2019-02-02T15:41:22.897Z,2.30
2019-02-02T15:45:28.146Z,2.40
2019-02-02T15:49:32.256Z,2.30
2019-02-02T15:53:36.452Z,2.30
2019-02-02T15:57:40.654Z,2.30
2019-02-02T16:01:44.773Z,2.30
2019-02-02T16:05:48.898Z,2.30
2019-02-02T16:09:53.070Z,2.30
2019-02-02T16:13:57.283Z,2.20
2019-02-02T16:18:01.566Z,2.20
2019-02-02T16:22:05.815Z,2.20
2019-02-02T16:26:10.027Z,2.10
2019-02-02T16:30:18.508Z,2.10
2019-02-02T16:34:22.716Z,2.20
2019-02-02T16:38:28.202Z,2.10
2019-02-02T16:42:32.323Z,2.10
2019-02-02T16:46:36.539Z,2.20
2019-02-02T16:50:40.703Z,2.20
2019-02-02T16:54:44.990Z,2.20
2019-02-02T16:58:49.219Z,2.10
2019-02-02T17:02:53.687Z,2.20
2019-02-02T17:06:57.869Z,2.20
2019-02-02T17:11:02.043Z,2.20
2019-02-02T17:15:07.039Z,2.20
2019-02-02T17:19:11.234Z,2.20
2019-02-02T17:23:15.350Z,2.10
2019-02-02T17:27:19.542Z,2.20
2019-02-02T17:31:23.801Z,2.20
2019-02-02T17:35:27.990Z,2.20
2019-02-02T17:39:32.118Z,2.20
2019-02-02T17:43:36.318Z,2.20
2019-02-02T17:47:40.601Z,2.20
2019-02-02T17:51:44.859Z,2.20
2019-02-02T17:55:49.174Z,2.20
2019-02-02T17:59:53.354Z,2.20
2019-02-02T18:03:57.626Z,2.20
2019-02-02T18:08:01.822Z,2.20
2019-02-02T18:12:06.010Z,2.20
2019-02-02T18:16:10.227Z,2.20
2019-02-02T18:20:15.703Z,2.20
2019-02-02T18:24:19.938Z,2.20
2019-02-02T18:28:24.162Z,2.20
2019-02-02T18:32:28.434Z,2.20
2019-02-02T18:36:32.621Z,2.20
2019-02-02T18:40:39.877Z,2.20
2019-02-02T18:44:42.642Z,2.20
2019-02-02T18:48:47.253Z,2.20
2019-02-02T18:52:51.594Z,2.20
2019-02-02T18:56:55.799Z,2.20
2019-02-02T19:00:59.979Z,2.10
2019-02-02T19:05:04.579Z,2.20
2019-02-02T19:09:09.222Z,2.10
2019-02-02T19:13:13.430Z,2.10
2019-02-02T19:17:17.626Z,2.10
2019-02-02T19:21:21.846Z,2.10
2019-02-02T19:25:26.243Z,2.10
2019-02-02T19:29:30.435Z,2.00
2019-02-02T19:33:34.597Z,2.00
2019-02-02T19:37:38.858Z,2.00
2019-02-02T19:41:43.876Z,2.00
2019-02-02T19:45:48.051Z,2.00
2019-02-02T19:49:52.250Z,1.90
2019-02-02T19:53:56.458Z,1.90
2019-02-02T19:58:00.708Z,1.90
2019-02-02T20:02:05.033Z,1.90
2019-02-02T20:06:09.226Z,1.90
2019-02-02T20:10:15.239Z,1.90
2019-02-02T20:14:19.479Z,1.90
2019-02-02T20:18:25.153Z,1.90
2019-02-02T20:22:29.463Z,1.90
2019-02-02T20:26:33.654Z,1.90
2019-02-02T20:30:37.770Z,1.90
2019-02-02T20:34:41.983Z,1.90
2019-02-02T20:38:46.171Z,1.80
2019-02-02T20:42:50.618Z,1.80
2019-02-02T20:46:55.136Z,1.80
2019-02-02T20:50:59.647Z,1.80
2019-02-02T20:55:03.961Z,1.70
2019-02-02T20:59:08.190Z,1.70
2019-02-02T21:03:12.448Z,1.70
2019-02-02T21:07:16.867Z,1.70
2019-02-02T21:11:21.095Z,1.60
2019-02-02T21:15:25.427Z,1.60
2019-02-02T21:19:29.677Z,1.60
2019-02-02T21:23:33.876Z,1.60
2019-02-02T21:27:38.130Z,1.60
2019-02-02T21:31:42.325Z,1.60
2019-02-02T21:35:48.796Z,1.60
2019-02-02T21:39:52.713Z,1.60
2019-02-02T21:43:56.950Z,1.60
2019-02-02T21:48:01.154Z,1.60
2019-02-02T21:52:05.650Z,1.60
2019-02-02T21:56:09.838Z,1.60
2019-02-02T22:00:37.180Z,1.60
2019-02-02T22:04:41.603Z,1.60
2019-02-02T22:08:45.807Z,1.60
2019-02-02T22:12:52.641Z,1.60
2019-02-02T22:16:56.262Z,1.60
2019-02-02T22:21:00.481Z,1.70
2019-02-02T22:25:08.298Z,1.70
2019-02-02T22:29:13.954Z,1.70
2019-02-02T22:33:19.841Z,1.70
2019-02-02T22:37:25.688Z,1.70
2019-02-02T22:41:29.945Z,1.70
2019-02-02T22:45:34.141Z,1.70
2019-02-02T22:49:41.490Z,1.70
2019-02-02T22:53:47.381Z,1.70
2019-02-02T22:57:52.270Z,1.70
2019-02-02T23:02:05.619Z,1.70
2019-02-02T23:06:49.932Z,1.70
2019-02-02T23:11:19.440Z,1.70
2019-02-02T23:15:46.511Z,1.70
2019-02-02T23:19:50.866Z,1.60
2019-02-02T23:23:55.471Z,1.60
2019-02-02T23:27:59.700Z,1.70
2019-02-02T23:32:04.310Z,1.60
2019-02-02T23:36:08.518Z,1.60
2019-02-02T23:40:13.510Z,1.60
2019-02-02T23:44:17.721Z,1.70
2019-02-02T23:48:22.003Z,1.70
2019-02-02T23:52:26.194Z,1.70
2019-02-02T23:56:30.399Z,1.70
